Time;durP1;ratioP1;P1;durP2;ratioP2;P2;SDS_P1;SDS_P2;PMS_P1;PMS_P2;Temp;Humidity;BMP_temperature;BMP_pressure;BME280_temperature;BME280_humidity;BME280_pressure;Samples;Min_cycle;Max_cycle;Signal;HPM_P1;HPM_P2
2024/01/20 00:00:54;;;;;;;;;;;;;;;-140.72;0.00;52668.84;5093929;28;19920;-70
2024/01/20 00:03:19;;;;;;;;;;;;;;;-140.72;0.00;52687.13;5096808;28;19959;-70
2024/01/20 00:05:44;;;;;;;;;;;;;;;-140.72;0.00;52668.84;5102926;28;19973;-70
2024/01/20 00:08:10;;;;;;;;;;;;;;;-140.72;0.00;52679.00;5094525;28;20389;-70
2024/01/20 00:10:35;;;;;;;;;;;;;;;-140.72;0.00;52650.59;5096751;28;19924;-70
2024/01/20 00:13:01;;;;;;;;;;;;;;;-140.72;0.00;52679.00;5096519;28;20267;-70
2024/01/20 00:15:26;;;;;;;;;;;;;;;-140.72;0.00;52670.88;5100139;28;19924;-70
2024/01/20 00:17:51;;;;;;;;;;;;;;;-140.72;0.00;52693.22;5078532;28;19920;-70
2024/01/20 00:20:16;;;;;;;;;;;;;;;-140.72;0.00;52676.97;5098949;28;19920;-70
2024/01/20 00:22:42;;;;;;;;;;;;;;;-140.72;0.00;52687.13;5099420;28;19920;-70
2024/01/20 00:25:08;;;;;;;;;;;;;;;-140.72;0.00;52697.28;5099173;28;19926;-70
2024/01/20 00:27:34;;;;;;;;;;;;;;;-140.72;0.00;52683.06;5100082;28;19977;-69
2024/01/20 00:29:59;;;;;;;;;;;;;;;-140.72;0.00;52711.47;5100845;28;19924;-70
2024/01/20 00:32:25;;;;;;;;;;;;;;;-140.72;0.00;52676.97;5101893;28;20362;-70
2024/01/20 00:34:50;;;;;;;;;;;;;;;-140.72;0.00;52707.41;5083390;28;19919;-70
2024/01/20 00:37:15;;;;;;;;;;;;;;;-140.72;0.00;52721.63;5107121;28;20408;-69
2024/01/20 00:39:40;;;;;;;;;;;;;;;-140.72;0.00;52672.91;5109699;28;19954;-69
2024/01/20 00:42:05;;;;;;;;;;;;;;;-140.72;0.00;52699.31;5102206;28;19968;-69
2024/01/20 00:44:31;;;;;;;;;;;;;;;-140.72;0.00;52674.94;5102505;28;19976;-70
2024/01/20 00:46:56;;;;;;;;;;;;;;;-140.72;0.00;52703.34;5098960;28;20118;-70
2024/01/20 00:49:21;;;;;;;;;;;;;;;-140.72;0.00;52727.72;5101897;28;19924;-70
2024/01/20 00:51:46;;;;;;;;;;;;;;;-140.72;0.00;52664.81;5080606;28;20290;-69
2024/01/20 00:54:12;;;;;;;;;;;;;;;-140.72;0.00;52689.16;5103096;28;19920;-70
2024/01/20 00:56:37;;;;;;;;;;;;;;;-140.72;0.00;52699.31;5096259;28;19929;-69
2024/01/20 00:59:02;;;;;;;;;;;;;;;-140.72;0.00;52725.69;5101203;28;20335;-70
2024/01/20 01:01:27;;;;;;;;;;;;;;;-140.72;0.00;52719.59;5081934;28;19959;-70
2024/01/20 01:03:53;;;;;;;;;;;;;;;-140.72;0.00;52731.75;5081445;28;20292;-69
2024/01/20 01:06:18;;;;;;;;;;;;;;;-140.72;0.00;52721.63;5104705;28;20014;-69
2024/01/20 01:08:43;;;;;;;;;;;;;;;-140.72;0.00;52729.75;5101581;28;19977;-69
2024/01/20 01:11:08;;;;;;;;;;;;;;;-140.72;0.00;52687.13;5098977;28;19974;-70
2024/01/20 01:13:36;;;;;;;;;;;;;;;-140.72;0.00;52743.94;5094324;28;20359;-69
2024/01/20 01:16:02;;;;;;;;;;;;;;;-140.72;0.00;52707.41;5098114;28;19920;-69
2024/01/20 01:18:27;;;;;;;;;;;;;;;-140.72;0.00;52707.41;5095763;28;20647;-69
2024/01/20 01:20:52;;;;;;;;;;;;;;;-140.72;0.00;52691.19;5097655;28;20286;-69
2024/01/20 01:23:18;;;;;;;;;;;;;;;-140.72;0.00;52715.53;5099070;28;19920;-69
2024/01/20 01:25:43;;;;;;;;;;;;;;;-140.72;0.00;52703.34;5098674;28;19931;-69
2024/01/20 01:28:08;;;;;;;;;;;;;;;-140.72;0.00;52676.97;5082678;28;19972;-69
2024/01/20 01:30:33;;;;;;;;;;;;;;;-140.72;0.00;52727.72;5094646;28;19928;-69
2024/01/20 01:32:58;;;;;;;;;;;;;;;-140.72;0.00;52683.06;5075297;28;20365;-69
2024/01/20 01:35:24;;;;;;;;;;;;;;;-140.72;0.00;52683.06;5100768;28;19920;-70
2024/01/20 01:37:49;;;;;;;;;;;;;;;-140.72;0.00;52668.84;5099481;28;19964;-69
2024/01/20 01:40:14;;;;;;;;;;;;;;;-140.72;0.00;52683.06;5092234;28;20270;-70
2024/01/20 01:42:39;;;;;;;;;;;;;;;-140.72;0.00;52668.84;5098528;28;20393;-69
2024/01/20 01:45:05;;;;;;;;;;;;;;;-140.72;0.00;52711.47;5100924;28;19968;-69
2024/01/20 01:47:30;;;;;;;;;;;;;;;-140.72;0.00;52687.13;5099865;28;20011;-69
2024/01/20 01:49:55;;;;;;;;;;;;;;;-140.72;0.00;52666.84;5093571;28;20285;-69
2024/01/20 01:52:22;;;;;;;;;;;;;;;-140.72;0.00;52715.53;5101391;28;19920;-69
2024/01/20 01:54:47;;;;;;;;;;;;;;;-140.72;0.00;52719.59;5083024;28;19938;-69
2024/01/20 01:57:13;;;;;;;;;;;;;;;-140.72;0.00;52658.72;5078162;28;20346;-69
2024/01/20 01:59:39;;;;;;;;;;;;;;;-140.72;0.00;52711.47;5100769;28;19920;-69
2024/01/20 02:02:04;;;;;;;;;;;;;;;-140.72;0.00;52719.59;5105262;28;20131;-69
2024/01/20 02:04:30;;;;;;;;;;;;;;;-140.72;0.00;52717.56;5081088;28;19922;-69
2024/01/20 02:06:55;;;;;;;;;;;;;;;-140.72;0.00;52662.78;5098677;28;19938;-69
2024/01/20 02:09:20;;;;;;;;;;;;;;;-140.72;0.00;52679.00;5086483;28;19926;-69
2024/01/20 02:11:46;;;;;;;;;;;;;;;-140.72;0.00;52699.31;5096248;28;19924;-69
2024/01/20 02:14:11;;;;;;;;;;;;;;;-140.72;0.00;52703.34;5098267;28;19928;-70
2024/01/20 02:16:37;;;;;;;;;;;;;;;-140.72;0.00;52656.69;5095668;28;19970;-69
2024/01/20 02:19:05;;;;;;;;;;;;;;;-140.72;0.00;52723.66;5093796;28;19931;-69
2024/01/20 02:21:32;;;;;;;;;;;;;;;-140.72;0.00;52713.50;5112171;28;19927;-69
2024/01/20 02:23:58;;;;;;;;;;;;;;;-140.72;0.00;52618.13;5101705;28;19952;-69
2024/01/20 02:26:25;;;;;;;;;;;;;;;-140.72;0.00;52711.47;5099563;28;19959;-69
2024/01/20 02:28:50;;;;;;;;;;;;;;;-140.72;0.00;52703.34;5101376;28;19927;-69
2024/01/20 02:31:15;;;;;;;;;;;;;;;-140.72;0.00;52695.25;5099532;28;19923;-69
2024/01/20 02:33:40;;;;;;;;;;;;;;;-140.72;0.00;52679.00;5094818;28;19939;-69
2024/01/20 02:36:06;;;;;;;;;;;;;;;-140.72;0.00;52689.16;5095322;28;19989;-69
2024/01/20 02:38:31;;;;;;;;;;;;;;;-140.72;0.00;52719.59;5104484;28;20483;-69
2024/01/20 02:40:56;;;;;;;;;;;;;;;-140.72;0.00;52660.75;5093535;28;19920;-69
2024/01/20 02:43:22;;;;;;;;;;;;;;;-140.72;0.00;52691.19;5096151;28;19920;-69
2024/01/20 02:45:47;;;;;;;;;;;;;;;-140.72;0.00;52733.78;5092977;28;19931;-69
2024/01/20 02:48:12;;;;;;;;;;;;;;;-140.72;0.00;52699.31;5099974;28;19943;-69
2024/01/20 02:50:37;;;;;;;;;;;;;;;-140.72;0.00;52676.97;5097863;28;19924;-69
2024/01/20 02:53:03;;;;;;;;;;;;;;;-140.72;0.00;52707.41;5097559;28;19928;-69
2024/01/20 02:55:28;;;;;;;;;;;;;;;-140.72;0.00;52693.22;5098466;28;20050;-70
2024/01/20 02:57:53;;;;;;;;;;;;;;;-140.72;0.00;52735.81;5093625;28;20277;-70
2024/01/20 03:00:18;;;;;;;;;;;;;;;-140.72;0.00;52713.50;5095060;28;19927;-70
2024/01/20 03:02:44;;;;;;;;;;;;;;;-140.72;0.00;52713.50;5092157;28;19931;-70
2024/01/20 03:05:09;;;;;;;;;;;;;;;-140.72;0.00;52689.16;5094344;28;19931;-70
2024/01/20 03:07:34;;;;;;;;;;;;;;;-140.72;0.00;52699.31;5095646;28;19927;-70
2024/01/20 03:09:59;;;;;;;;;;;;;;;-140.72;0.00;52715.53;5097764;28;19926;-70
2024/01/20 03:12:25;;;;;;;;;;;;;;;-140.72;0.00;52674.94;5099885;28;19920;-70
2024/01/20 03:14:50;;;;;;;;;;;;;;;-140.72;0.00;52707.41;5100199;28;19927;-70
2024/01/20 03:17:15;;;;;;;;;;;;;;;-140.72;0.00;52721.63;5077994;28;20403;-70
2024/01/20 03:19:40;;;;;;;;;;;;;;;-140.72;0.00;52691.19;5082856;28;19920;-70
2024/01/20 03:22:05;;;;;;;;;;;;;;;-140.72;0.00;52733.78;5092150;28;20300;-71
2024/01/20 03:24:31;;;;;;;;;;;;;;;-140.72;0.00;52719.59;5102234;28;20149;-70
2024/01/20 03:26:56;;;;;;;;;;;;;;;-140.72;0.00;52662.78;5096558;28;20438;-70
2024/01/20 03:29:22;;;;;;;;;;;;;;;-140.72;0.00;52691.19;5098482;28;19926;-70
2024/01/20 03:31:47;;;;;;;;;;;;;;;-140.72;0.00;52739.88;5093676;28;20297;-70
2024/01/20 03:34:12;;;;;;;;;;;;;;;-140.72;0.00;52705.38;5093266;28;19939;-70
2024/01/20 03:36:38;;;;;;;;;;;;;;;-140.72;0.00;52756.13;5093300;28;19973;-70
2024/01/20 03:39:03;;;;;;;;;;;;;;;-140.72;0.00;52735.81;5079729;28;19920;-70
2024/01/20 03:41:28;;;;;;;;;;;;;;;-140.72;0.00;52668.84;5105593;28;19920;-70
2024/01/20 03:43:54;;;;;;;;;;;;;;;-140.72;0.00;52713.50;5104062;28;19920;-70
2024/01/20 03:46:20;;;;;;;;;;;;;;;-140.72;0.00;52691.19;5098654;28;20050;-70
2024/01/20 03:48:45;;;;;;;;;;;;;;;-140.72;0.00;52691.19;5078696;28;19970;-70
2024/01/20 03:51:10;;;;;;;;;;;;;;;-140.72;0.00;52666.84;5095393;28;19924;-70
2024/01/20 03:53:35;;;;;;;;;;;;;;;-140.72;0.00;52681.03;5094180;28;20458;-70
2024/01/20 03:56:01;;;;;;;;;;;;;;;-140.72;0.00;52745.97;5092008;28;19928;-70
2024/01/20 03:58:26;;;;;;;;;;;;;;;-140.72;0.00;52683.06;5100781;28;19942;-70
2024/01/20 04:00:51;;;;;;;;;;;;;;;-140.72;0.00;52715.53;5099285;28;20006;-70
2024/01/20 04:03:17;;;;;;;;;;;;;;;-140.72;0.00;52703.34;5109372;28;20020;-70
2024/01/20 04:05:42;;;;;;;;;;;;;;;-140.72;0.00;52691.19;5100798;28;19921;-70
2024/01/20 04:08:07;;;;;;;;;;;;;;;-140.72;0.00;52697.28;5079615;28;20978;-70
2024/01/20 04:10:32;;;;;;;;;;;;;;;-140.72;0.00;52668.84;5102976;28;19920;-70
2024/01/20 04:12:57;;;;;;;;;;;;;;;-140.72;0.00;52687.13;5099831;28;19920;-70
2024/01/20 04:15:23;;;;;;;;;;;;;;;-140.72;0.00;52754.09;5092967;28;19963;-70
2024/01/20 04:17:48;;;;;;;;;;;;;;;-140.72;0.00;52679.00;5080048;28;19973;-70
2024/01/20 04:20:13;;;;;;;;;;;;;;;-140.72;0.00;52707.41;5098422;28;19950;-71
2024/01/20 04:22:39;;;;;;;;;;;;;;;-140.72;0.00;52715.53;5097410;28;19927;-70
2024/01/20 04:25:04;;;;;;;;;;;;;;;-140.72;0.00;52723.66;5098626;28;19981;-73
2024/01/20 04:27:29;;;;;;;;;;;;;;;-140.72;0.00;52699.31;5092850;28;20002;-70
2024/01/20 04:29:55;;;;;;;;;;;;;;;-140.72;0.00;52739.88;5090898;28;19977;-70
2024/01/20 04:32:20;;;;;;;;;;;;;;;-140.72;0.00;52687.13;5100469;28;20246;-70
2024/01/20 04:34:46;;;;;;;;;;;;;;;-140.72;0.00;52709.44;5092007;28;19959;-70
2024/01/20 04:37:11;;;;;;;;;;;;;;;-140.72;0.00;52672.91;5099614;28;19923;-70
2024/01/20 04:39:36;;;;;;;;;;;;;;;-140.72;0.00;52676.97;5094784;28;19973;-70
2024/01/20 04:42:02;;;;;;;;;;;;;;;-140.72;0.00;52725.69;5097196;28;19969;-70
2024/01/20 04:44:28;;;;;;;;;;;;;;;-140.72;0.00;52711.47;5093847;28;20289;-70
2024/01/20 04:46:53;;;;;;;;;;;;;;;-140.72;0.00;52693.22;5080822;28;19920;-70
2024/01/20 04:49:18;;;;;;;;;;;;;;;-140.72;0.00;52674.94;5098696;28;20022;-70
2024/01/20 04:51:44;;;;;;;;;;;;;;;-140.72;0.00;52681.03;5077292;28;20000;-70
2024/01/20 04:54:10;;;;;;;;;;;;;;;-140.72;0.00;52658.72;5098211;28;20075;-70
2024/01/20 04:56:35;;;;;;;;;;;;;;;-140.72;0.00;52683.06;5094121;28;20015;-70
2024/01/20 04:59:00;;;;;;;;;;;;;;;-140.72;0.00;52709.44;5103501;28;20085;-70
2024/01/20 05:01:25;;;;;;;;;;;;;;;-140.72;0.00;52707.41;5096114;28;19934;-70
2024/01/20 05:03:51;;;;;;;;;;;;;;;-140.72;0.00;52703.34;5082102;28;19920;-70
2024/01/20 05:06:16;;;;;;;;;;;;;;;-140.72;0.00;52711.47;5096869;28;19980;-70
2024/01/20 05:08:41;;;;;;;;;;;;;;;-140.72;0.00;52695.25;5102277;28;20376;-70
2024/01/20 05:11:06;;;;;;;;;;;;;;;-140.72;0.00;52687.13;5097348;28;19976;-70
2024/01/20 05:13:32;;;;;;;;;;;;;;;-140.72;0.00;52707.41;5097915;28;19924;-69
2024/01/20 05:15:57;;;;;;;;;;;;;;;-140.72;0.00;52707.41;5106665;28;20357;-69
2024/01/20 05:18:22;;;;;;;;;;;;;;;-140.72;0.00;52707.41;5099898;28;19969;-70
2024/01/20 05:20:48;;;;;;;;;;;;;;;-140.72;0.00;52705.38;5099623;28;20019;-70
2024/01/20 05:23:13;;;;;;;;;;;;;;;-140.72;0.00;52691.19;5082451;28;19924;-70
2024/01/20 05:25:38;;;;;;;;;;;;;;;-140.72;0.00;52711.47;5096682;28;19924;-69
2024/01/20 05:28:04;;;;;;;;;;;;;;;-140.72;0.00;52707.41;5099733;28;20341;-69
2024/01/20 05:30:29;;;;;;;;;;;;;;;-140.72;0.00;52756.13;5102783;28;19928;-69
2024/01/20 05:32:54;;;;;;;;;;;;;;;-140.72;0.00;52707.41;5101558;28;19916;-69
2024/01/20 05:35:19;;;;;;;;;;;;;;;-140.72;0.00;52693.22;5102247;28;19920;-69
2024/01/20 05:37:45;;;;;;;;;;;;;;;-140.72;0.00;52715.53;5098726;28;19928;-70
2024/01/20 05:40:10;;;;;;;;;;;;;;;-140.72;0.00;52711.47;5099871;28;19972;-69
2024/01/20 05:42:35;;;;;;;;;;;;;;;-140.72;0.00;52733.78;5099525;28;19924;-70
2024/01/20 05:45:01;;;;;;;;;;;;;;;-140.72;0.00;52707.41;5111750;28;19930;-69
2024/01/20 05:47:26;;;;;;;;;;;;;;;-140.72;0.00;52741.91;5111826;28;19941;-70
2024/01/20 05:49:51;;;;;;;;;;;;;;;-140.72;0.00;52697.28;5079770;28;19927;-69
2024/01/20 05:52:16;;;;;;;;;;;;;;;-140.72;0.00;52719.59;5081920;28;20405;-69
2024/01/20 05:54:41;;;;;;;;;;;;;;;-140.72;0.00;52715.53;5101647;28;20389;-71
2024/01/20 05:57:08;;;;;;;;;;;;;;;-140.72;0.00;52735.81;5101027;28;20301;-69
2024/01/20 05:59:33;;;;;;;;;;;;;;;-140.72;0.00;52715.53;5097910;28;19967;-70
2024/01/20 06:01:58;;;;;;;;;;;;;;;-140.72;0.00;52723.66;5099218;28;19973;-70
2024/01/20 06:04:24;;;;;;;;;;;;;;;-140.72;0.00;52723.66;5078174;28;20437;-74
2024/01/20 06:06:49;;;;;;;;;;;;;;;-140.72;0.00;52689.16;5082203;28;19959;-73
2024/01/20 06:09:15;;;;;;;;;;;;;;;-140.72;0.00;52711.47;5106092;28;20034;-74
2024/01/20 06:11:40;;;;;;;;;;;;;;;-140.72;0.00;52689.16;5099369;28;19959;-73
2024/01/20 06:14:05;;;;;;;;;;;;;;;-140.72;0.00;52699.31;5104954;28;19928;-77
2024/01/20 06:16:30;;;;;;;;;;;;;;;-140.72;0.00;52715.53;5075457;28;20389;-71
2024/01/20 06:18:56;;;;;;;;;;;;;;;-140.72;0.00;52705.38;5095514;28;19924;-71
2024/01/20 06:21:21;;;;;;;;;;;;;;;-140.72;0.00;52723.66;5098570;28;20374;-71
2024/01/20 06:23:48;;;;;;;;;;;;;;;-140.72;0.00;52674.94;5100262;28;19965;-72
2024/01/20 06:26:13;;;;;;;;;;;;;;;-140.72;0.00;52707.41;5096460;28;19928;-70
2024/01/20 06:28:38;;;;;;;;;;;;;;;-140.72;0.00;52707.41;5095811;28;19920;-70
2024/01/20 06:31:03;;;;;;;;;;;;;;;-140.72;0.00;52715.53;5096259;28;19927;-70
2024/01/20 06:33:29;;;;;;;;;;;;;;;-140.72;0.00;52715.53;5095981;28;19920;-70
2024/01/20 06:35:54;;;;;;;;;;;;;;;-140.72;0.00;52701.31;5097316;28;20333;-71
2024/01/20 06:38:19;;;;;;;;;;;;;;;-140.72;0.00;52666.84;5094103;28;19920;-70
2024/01/20 06:40:44;;;;;;;;;;;;;;;-140.72;0.00;52668.84;5099845;28;19920;-70
2024/01/20 06:43:09;;;;;;;;;;;;;;;-140.72;0.00;52733.78;5099664;28;20003;-70
2024/01/20 06:45:35;;;;;;;;;;;;;;;-140.72;0.00;52695.25;5098721;28;20347;-70
2024/01/20 06:48:01;;;;;;;;;;;;;;;-140.72;0.00;52752.06;5097026;28;19932;-71
2024/01/20 06:50:26;;;;;;;;;;;;;;;-140.72;0.00;52768.28;5100158;28;19924;-70
2024/01/20 06:52:51;;;;;;;;;;;;;;;-140.72;0.00;52741.91;5099837;28;20396;-69
2024/01/20 06:55:17;;;;;;;;;;;;;;;-140.72;0.00;52681.03;5080389;28;19920;-69
2024/01/20 06:57:42;;;;;;;;;;;;;;;-140.72;0.00;52691.19;5113027;28;19967;-68
2024/01/20 07:00:08;;;;;;;;;;;;;;;-140.72;0.00;52721.63;5099882;28;19920;-68
2024/01/20 07:02:33;;;;;;;;;;;;;;;-140.72;0.00;52729.75;5098768;28;20308;-69
2024/01/20 07:04:59;;;;;;;;;;;;;;;-140.72;0.00;52748.00;5099017;28;19939;-73
2024/01/20 07:07:24;;;;;;;;;;;;;;;-140.72;0.00;52670.88;5103609;28;19941;-70
2024/01/20 07:09:49;;;;;;;;;;;;;;;-140.72;0.00;52743.94;5100476;28;19944;-71
2024/01/20 07:12:14;;;;;;;;;;;;;;;-140.72;0.00;52715.53;5100675;28;19926;-73
2024/01/20 07:14:42;;;;;;;;;;;;;;;-140.72;0.00;52723.66;5080095;28;19928;-71
2024/01/20 07:17:07;;;;;;;;;;;;;;;-140.72;0.00;52733.78;5097111;28;19920;-71
2024/01/20 07:19:33;;;;;;;;;;;;;;;-140.72;0.00;52731.75;5081757;28;21387;-72
2024/01/20 07:21:58;;;;;;;;;;;;;;;-140.72;0.00;52713.50;5098311;28;19920;-71
2024/01/20 07:24:23;;;;;;;;;;;;;;;-140.72;0.00;52717.56;5104833;28;19976;-71
2024/01/20 07:26:49;;;;;;;;;;;;;;;-140.72;0.00;52683.06;5107694;28;19981;-71
2024/01/20 07:29:14;;;;;;;;;;;;;;;-140.72;0.00;52748.00;5121198;28;19920;-71
2024/01/20 07:31:39;;;;;;;;;;;;;;;-140.72;0.00;52707.41;5099723;28;19927;-72
2024/01/20 07:34:04;;;;;;;;;;;;;;;-140.72;0.00;52727.72;5105079;28;19920;-70
2024/01/20 07:36:30;;;;;;;;;;;;;;;-140.72;0.00;52676.97;5099241;28;19923;-69
2024/01/20 07:38:55;;;;;;;;;;;;;;;-140.72;0.00;52656.69;5103157;28;19924;-70
2024/01/20 07:41:20;;;;;;;;;;;;;;;-140.72;0.00;52733.78;5098021;28;19921;-69
2024/01/20 07:43:45;;;;;;;;;;;;;;;-140.72;0.00;52691.19;5104664;28;19920;-69
2024/01/20 07:46:12;;;;;;;;;;;;;;;-140.72;0.00;52687.13;5097247;28;19978;-72
2024/01/20 07:48:37;;;;;;;;;;;;;;;-140.72;0.00;52725.69;5095456;28;19936;-69
2024/01/20 07:51:02;;;;;;;;;;;;;;;-140.72;0.00;52709.44;5093556;28;19927;-69
2024/01/20 07:53:28;;;;;;;;;;;;;;;-140.72;0.00;52699.31;5080055;28;20293;-70
2024/01/20 07:55:53;;;;;;;;;;;;;;;-140.72;0.00;52707.41;5093203;28;20019;-70
2024/01/20 07:58:18;;;;;;;;;;;;;;;-140.72;0.00;52687.13;5104294;28;19963;-71
2024/01/20 08:00:43;;;;;;;;;;;;;;;-140.72;0.00;52719.59;5091369;28;19927;-69
2024/01/20 08:03:09;;;;;;;;;;;;;;;-140.72;0.00;52727.72;5103229;28;19916;-69
2024/01/20 08:05:34;;;;;;;;;;;;;;;-140.72;0.00;52676.97;5098553;28;19921;-69
2024/01/20 08:07:59;;;;;;;;;;;;;;;-140.72;0.00;52703.34;5080991;28;19920;-70
2024/01/20 08:10:24;;;;;;;;;;;;;;;-140.72;0.00;52699.31;5094323;28;20009;-70
2024/01/20 08:12:51;;;;;;;;;;;;;;;-140.72;0.00;52715.53;5095361;28;20018;-70
2024/01/20 08:15:16;;;;;;;;;;;;;;;-140.72;0.00;52737.84;5096660;28;19924;-70
2024/01/20 08:17:41;;;;;;;;;;;;;;;-140.72;0.00;52695.25;5094421;28;19938;-70
2024/01/20 08:20:07;;;;;;;;;;;;;;;-140.72;0.00;52731.75;5100642;28;19920;-69
2024/01/20 08:22:32;;;;;;;;;;;;;;;-140.72;0.00;52717.56;5100566;28;19996;-70
2024/01/20 08:24:59;;;;;;;;;;;;;;;-140.72;0.00;52662.78;5097462;28;19924;-69
2024/01/20 08:27:36;;;;;;;;;;;;;;;-140.72;0.00;52681.03;5095988;28;19965;-70
2024/01/20 08:30:02;;;;;;;;;;;;;;;-140.72;0.00;52745.97;5076658;28;19948;-69
2024/01/20 08:32:27;;;;;;;;;;;;;;;-140.72;0.00;52721.63;5081285;28;20403;-71
2024/01/20 08:34:52;;;;;;;;;;;;;;;-140.72;0.00;52727.72;5084366;28;20335;-70
2024/01/20 08:37:17;;;;;;;;;;;;;;;-140.72;0.00;52715.53;5106170;28;20345;-70
2024/01/20 08:39:43;;;;;;;;;;;;;;;-140.72;0.00;52752.06;5095767;28;19931;-70
2024/01/20 08:42:08;;;;;;;;;;;;;;;-140.72;0.00;52739.88;5098651;28;19920;-72
2024/01/20 08:44:34;;;;;;;;;;;;;;;-140.72;0.00;52685.09;5107226;28;19931;-70
2024/01/20 08:46:59;;;;;;;;;;;;;;;-140.72;0.00;52748.00;5103424;28;19960;-70
2024/01/20 08:49:24;;;;;;;;;;;;;;;-140.72;0.00;52733.78;5084722;28;19927;-70
2024/01/20 08:51:49;;;;;;;;;;;;;;;-140.72;0.00;52695.25;5095776;28;19916;-70
2024/01/20 08:54:16;;;;;;;;;;;;;;;-140.72;0.00;52760.19;5086744;28;20298;-69
2024/01/20 08:56:41;;;;;;;;;;;;;;;-140.72;0.00;52699.31;5102632;28;19923;-70
2024/01/20 08:59:06;;;;;;;;;;;;;;;-140.72;0.00;52707.41;5087448;28;19916;-69
2024/01/20 09:01:32;;;;;;;;;;;;;;;-140.72;0.00;52699.31;5091888;28;20361;-70
2024/01/20 09:03:57;;;;;;;;;;;;;;;-140.72;0.00;52695.25;5098818;28;20405;-69
2024/01/20 09:06:22;;;;;;;;;;;;;;;-140.72;0.00;52658.72;5078870;28;19916;-69
2024/01/20 09:08:47;;;;;;;;;;;;;;;-140.72;0.00;52721.63;5098254;28;19920;-70
2024/01/20 09:11:12;;;;;;;;;;;;;;;-140.72;0.00;52674.94;5101481;28;19956;-70
2024/01/20 09:13:38;;;;;;;;;;;;;;;-140.72;0.00;52689.16;5102985;28;19936;-70
2024/01/20 09:16:03;;;;;;;;;;;;;;;-140.72;0.00;52693.22;5091686;28;19916;-70
2024/01/20 09:18:28;;;;;;;;;;;;;;;-140.72;0.00;52679.00;5092039;28;20296;-69
2024/01/20 09:20:53;;;;;;;;;;;;;;;-140.72;0.00;52660.75;5096005;28;19916;-70
2024/01/20 09:23:19;;;;;;;;;;;;;;;-140.72;0.00;52691.19;5097185;28;19916;-69
2024/01/20 09:25:44;;;;;;;;;;;;;;;-140.72;0.00;52681.03;5099289;28;20392;-69
2024/01/20 09:28:10;;;;;;;;;;;;;;;-140.72;0.00;52650.59;5084554;28;19924;-70
2024/01/20 09:30:35;;;;;;;;;;;;;;;-140.72;0.00;52668.84;5086478;28;19931;-69
2024/01/20 09:33:01;;;;;;;;;;;;;;;-140.72;0.00;52735.81;5089277;28;20073;-69
2024/01/20 09:35:27;;;;;;;;;;;;;;;-140.72;0.00;52652.63;5093785;28;19927;-69
2024/01/20 09:37:52;;;;;;;;;;;;;;;-140.72;0.00;52705.38;5082483;28;19939;-69
2024/01/20 09:40:18;;;;;;;;;;;;;;;-140.72;0.00;52693.22;5093729;28;19916;-69
2024/01/20 09:42:43;;;;;;;;;;;;;;;-140.72;0.00;52670.88;5092536;28;19920;-69
2024/01/20 09:45:09;;;;;;;;;;;;;;;-140.72;0.00;52693.22;5092042;28;19920;-69
2024/01/20 09:47:34;;;;;;;;;;;;;;;-140.72;0.00;52685.09;5093324;28;20376;-70
2024/01/20 09:50:00;;;;;;;;;;;;;;;-140.72;0.00;52666.84;5095603;28;19916;-70
2024/01/20 09:52:26;;;;;;;;;;;;;;;-140.72;0.00;52626.25;5094674;28;19934;-70
2024/01/20 09:54:55;;;;;;;;;;;;;;;-140.72;0.00;52699.31;5080957;28;20015;-69
2024/01/20 09:57:20;;;;;;;;;;;;;;;-140.72;0.00;52642.47;5079403;28;20442;-70
2024/01/20 09:59:47;;;;;;;;;;;;;;;-140.72;0.00;52660.75;5092336;28;20010;-70
2024/01/20 10:02:12;;;;;;;;;;;;;;;-140.72;0.00;52674.94;5084709;28;19928;-70
2024/01/20 10:04:42;;;;;;;;;;;;;;;-140.72;0.00;52658.72;5086170;28;19920;-70
2024/01/20 10:07:07;;;;;;;;;;;;;;;-140.72;0.00;52646.53;5082797;28;20434;-70
2024/01/20 10:09:33;;;;;;;;;;;;;;;-140.72;0.00;52646.53;5090029;28;20007;-70
2024/01/20 10:11:59;;;;;;;;;;;;;;;-140.72;0.00;52676.97;5070053;28;20042;-70
2024/01/20 10:14:24;;;;;;;;;;;;;;;-140.72;0.00;52654.66;5085177;28;20377;-70
2024/01/20 10:16:49;;;;;;;;;;;;;;;-140.72;0.00;52674.94;5093221;28;19931;-70
2024/01/20 10:19:15;;;;;;;;;;;;;;;-140.72;0.00;52648.56;5091978;28;20011;-70
2024/01/20 10:21:40;;;;;;;;;;;;;;;-140.72;0.00;52660.75;5094184;28;19920;-70
2024/01/20 10:24:07;;;;;;;;;;;;;;;-140.72;0.00;52642.47;5100139;28;19924;-70
2024/01/20 10:26:39;;;;;;;;;;;;;;;-140.72;0.00;52654.66;5074832;28;19924;-70
2024/01/20 10:29:04;;;;;;;;;;;;;;;-140.72;0.00;52630.31;5093062;28;20231;-70
2024/01/20 10:31:31;;;;;;;;;;;;;;;-140.72;0.00;52681.03;5104567;28;19927;-70
2024/01/20 10:33:56;;;;;;;;;;;;;;;-140.72;0.00;52618.13;5092827;28;19924;-70
2024/01/20 10:36:22;;;;;;;;;;;;;;;-140.72;0.00;52683.06;5090951;28;20286;-70
2024/01/20 10:38:49;;;;;;;;;;;;;;;-140.72;0.00;52620.16;5092559;28;20007;-70
2024/01/20 10:41:17;;;;;;;;;;;;;;;-140.72;0.00;52630.31;5078049;28;20023;-70
2024/01/20 10:43:46;;;;;;;;;;;;;;;-140.72;0.00;52622.19;5073154;28;20010;-69
2024/01/20 10:46:16;;;;;;;;;;;;;;;-140.72;0.00;52601.91;5061249;28;20380;-70
2024/01/20 10:48:45;;;;;;;;;;;;;;;-140.72;0.00;52640.44;5092455;28;20318;-70
2024/01/20 10:51:11;;;;;;;;;;;;;;;-140.72;0.00;52589.72;5086342;28;19924;-70
2024/01/20 10:53:36;;;;;;;;;;;;;;;-140.72;0.00;52634.38;5102350;28;20339;-70
2024/01/20 10:56:02;;;;;;;;;;;;;;;-140.72;0.00;52630.31;5091695;28;20238;-70
2024/01/20 10:58:31;;;;;;;;;;;;;;;-140.72;0.00;52577.53;5077019;28;20002;-70
2024/01/20 11:00:57;;;;;;;;;;;;;;;-140.72;0.00;52646.53;5088791;28;19923;-70
2024/01/20 11:03:22;;;;;;;;;;;;;;;-140.72;0.00;52646.53;5082489;28;20289;-70
2024/01/20 11:05:48;;;;;;;;;;;;;;;-140.72;0.00;52620.16;5091332;28;19916;-70
2024/01/20 11:08:13;;;;;;;;;;;;;;;-140.72;0.00;52654.66;5092010;28;19926;-70
2024/01/20 11:10:39;;;;;;;;;;;;;;;-140.72;0.00;52610.00;5093654;28;20045;-70
2024/01/20 11:13:05;;;;;;;;;;;;;;;-140.72;0.00;52612.03;5089016;28;20312;-70
2024/01/20 11:15:31;;;;;;;;;;;;;;;-140.72;0.00;52620.16;5081445;28;19930;-70
2024/01/20 11:17:56;;;;;;;;;;;;;;;-140.72;0.00;52654.66;5088259;28;19976;-70
2024/01/20 11:20:21;;;;;;;;;;;;;;;-140.72;0.00;52569.44;5103116;28;19968;-70
2024/01/20 11:22:47;;;;;;;;;;;;;;;-140.72;0.00;52636.38;5090585;28;20430;-71
2024/01/20 11:25:13;;;;;;;;;;;;;;;-140.72;0.00;52610.00;5082441;28;19970;-71
2024/01/20 11:27:46;;;;;;;;;;;;;;;-140.72;0.00;52650.59;5081232;28;19916;-71
2024/01/20 11:30:11;;;;;;;;;;;;;;;-140.72;0.00;52571.47;5080322;28;19917;-71
2024/01/20 11:32:36;;;;;;;;;;;;;;;-140.72;0.00;52632.34;5077462;28;20270;-70
2024/01/20 11:35:04;;;;;;;;;;;;;;;-140.72;0.00;52605.94;5088784;28;19920;-73
2024/01/20 11:37:31;;;;;;;;;;;;;;;-140.72;0.00;52636.38;5083460;28;20015;-74
2024/01/20 11:40:03;;;;;;;;;;;;;;;-140.72;0.00;52614.06;5075401;28;19920;-73
2024/01/20 11:42:28;;;;;;;;;;;;;;;-140.72;0.00;52605.94;5093122;28;19916;-72
2024/01/20 11:44:53;;;;;;;;;;;;;;;-140.72;0.00;52644.50;5079405;28;19966;-74
2024/01/20 11:47:19;;;;;;;;;;;;;;;-140.72;0.00;52622.19;5096907;28;20272;-71
2024/01/20 11:49:44;;;;;;;;;;;;;;;-140.72;0.00;52595.81;5097558;28;20444;-72
2024/01/20 11:52:09;;;;;;;;;;;;;;;-140.72;0.00;52567.41;5085163;28;20072;-71
2024/01/20 11:54:35;;;;;;;;;;;;;;;-140.72;0.00;52628.28;5070647;28;20286;-72
2024/01/20 11:57:00;;;;;;;;;;;;;;;-140.72;0.00;52642.47;5072404;28;19993;-72
2024/01/20 11:59:25;;;;;;;;;;;;;;;-140.72;0.00;52614.06;5092037;28;19927;-70
2024/01/20 12:01:50;;;;;;;;;;;;;;;-140.72;0.00;52634.38;5088458;28;20330;-72
2024/01/20 12:04:16;;;;;;;;;;;;;;;-140.72;0.00;52636.38;5088347;28;19924;-71
2024/01/20 12:06:41;;;;;;;;;;;;;;;-140.72;0.00;52597.84;5091079;28;20428;-70
2024/01/20 12:09:06;;;;;;;;;;;;;;;-140.72;0.00;52603.94;5097194;28;20054;-70
2024/01/20 12:11:31;;;;;;;;;;;;;;;-140.72;0.00;52622.19;5093581;28;19928;-70
2024/01/20 12:13:57;;;;;;;;;;;;;;;-140.72;0.00;52626.25;5090788;28;20033;-71
2024/01/20 12:16:22;;;;;;;;;;;;;;;-140.72;0.00;52612.03;5069807;28;19972;-71
2024/01/20 12:18:47;;;;;;;;;;;;;;;-140.72;0.00;52583.63;5084576;28;20383;-71
2024/01/20 12:21:13;;;;;;;;;;;;;;;-140.72;0.00;52634.38;5067779;28;20444;-70
2024/01/20 12:23:38;;;;;;;;;;;;;;;-140.72;0.00;52664.81;5073586;28;19935;-70
2024/01/20 12:26:11;;;;;;;;;;;;;;;-140.72;0.00;52614.06;5080444;28;20002;-70